Weather at Treasure Cay Airport

Public forecast

Using degrees Celsius for public forecast. Weather courtesy of forecast.io.

Closest aviation weather report (METAR) to Treasure Cay Airport

Report is more than 6 hours old.

Closest report is Grand Bahama International Airport, 70.9 nm (131.3 km) W. Retrieved 2020/09/18 23:00 UTC (12 hours ago):

MYGF 182300Z 21007KT CAVOK 30/26 A2988

Closest aviation forecast (TAF) to Treasure Cay Airport

Forecast is more than 6 hours old.

Closest forecast is Grand Bahama International Airport, 70.9 nm (131.3 km) W. Retrieved 2020-09-19 00:00 UTC (11 hours ago):

TAF MYGF 182255Z 1900/1924 21004KT 9999 VCSH SCT020 BKN250 PROB30 TEMPO 1906/1910 24010KT 7000 SHRA FEW016CB SCT018 BKN200